Terminal Aerodrome Forecast
Issued by NWS Buffalo, NY

Home | Current Version | Previous Version | Text Only | Print | Product List | Glossary On
Versions: 1 2 3 4 5 6 7 8 9 10 11 12 13 14 15 16 17 18 19 20 21 22 23 24 25 26
000
FTUS41 KBUF 281504 AAA
TAFART
TAF AMD
KART 281504Z 2815/2912 26006KT P6SM SCT100
     FM281600 24008KT P6SM BKN080
     FM282300 32004KT P6SM BKN100
     FM290000 VRB03KT P6SM BKN100
     FM290500 05005KT P6SM BKN060=

USA.gov is the U.S. government's official web portal to all federal, state and local government web resources and services.